Time;durP1;ratioP1;P1;durP2;ratioP2;P2;SDS_P1;SDS_P2;PMS_P1;PMS_P2;Temp;Humidity;BMP_temperature;BMP_pressure;BME280_temperature;BME280_humidity;BME280_pressure;Samples;Min_cycle;Max_cycle;Signal;HPM_P1;HPM_P2
2021/11/23 00:01:02;;;;;;;;;;;;;;;5.19;84.01;98981.02;1706558;82;24498;-86
2021/11/23 00:03:28;;;;;;;;;;;;;;;5.16;83.93;98983.74;1692942;83;20222;-86
2021/11/23 00:05:54;;;;;;;;;;;;;;;5.07;83.85;98978.92;1704165;83;25577;-85
2021/11/23 00:08:21;;;;;;;;;;;;;;;5.08;83.78;98984.48;1705193;82;20847;-85
2021/11/23 00:10:47;;;;;;;;;;;;;;;5.05;83.71;98985.91;1701800;82;26045;-86
2021/11/23 00:13:23;;;;;;;;;;;;;;;5.00;83.62;98994.32;1698044;83;24494;-86
2021/11/23 00:15:52;;;;;;;;;;;;;;;4.94;83.54;98994.55;1698134;84;20500;-86
2021/11/23 00:18:21;;;;;;;;;;;;;;;4.92;83.44;98992.45;1699521;82;24838;-85
2021/11/23 00:20:47;;;;;;;;;;;;;;;4.86;83.37;98993.98;1694752;82;23137;-85
2021/11/23 00:23:14;;;;;;;;;;;;;;;4.87;83.33;98990.48;1675874;84;26037;-86
2021/11/23 00:25:44;;;;;;;;;;;;;;;4.85;83.23;98987.13;1680624;84;24594;-85
2021/11/23 00:28:12;;;;;;;;;;;;;;;4.86;83.18;98987.50;1698567;83;20226;-86
2021/11/23 00:30:43;;;;;;;;;;;;;;;4.93;83.11;98996.75;1702004;82;24808;-85
2021/11/23 00:33:09;;;;;;;;;;;;;;;4.97;83.05;98998.31;1702732;82;21963;-86
2021/11/23 00:35:37;;;;;;;;;;;;;;;4.93;83.01;98999.34;1695632;82;27028;-86
2021/11/23 00:38:06;;;;;;;;;;;;;;;4.91;82.94;98999.87;1691574;82;24547;-86
2021/11/23 00:40:32;;;;;;;;;;;;;;;4.80;82.85;98998.12;1694080;83;20269;-85
2021/11/23 00:43:03;;;;;;;;;;;;;;;4.69;82.75;98999.80;1668995;82;24754;-86
2021/11/23 00:45:26;;;;;;;;;;;;;;;4.64;82.61;99004.31;1694215;82;22633;-86
2021/11/23 00:47:52;;;;;;;;;;;;;;;4.59;82.51;99000.59;1700993;82;20809;-86
2021/11/23 00:50:18;;;;;;;;;;;;;;;4.50;82.35;99000.09;1695027;82;24054;-85
2021/11/23 00:52:45;;;;;;;;;;;;;;;4.40;82.19;98997.00;1691631;82;20238;-85
2021/11/23 00:55:11;;;;;;;;;;;;;;;4.37;82.06;99001.42;1693989;82;25755;-85
2021/11/23 00:57:37;;;;;;;;;;;;;;;4.34;81.94;98995.92;1666456;83;21869;-85
2021/11/23 01:00:06;;;;;;;;;;;;;;;4.30;81.84;98990.45;1698204;82;26024;-85
2021/11/23 01:02:33;;;;;;;;;;;;;;;4.30;81.73;98995.64;1675538;83;24346;-85
2021/11/23 01:04:59;;;;;;;;;;;;;;;4.16;81.60;98997.41;1699466;82;20248;-85
2021/11/23 01:07:26;;;;;;;;;;;;;;;4.18;81.53;99001.25;1665254;83;20837;-86
2021/11/23 01:09:52;;;;;;;;;;;;;;;4.21;81.43;99010.19;1687589;83;20258;-85
2021/11/23 01:12:18;;;;;;;;;;;;;;;4.30;81.37;99007.75;1696273;83;26000;-86
2021/11/23 01:14:44;;;;;;;;;;;;;;;4.37;81.35;99005.30;1704035;82;24644;-85
2021/11/23 01:17:11;;;;;;;;;;;;;;;4.42;81.30;99009.42;1699768;82;20464;-86
2021/11/23 01:19:39;;;;;;;;;;;;;;;4.51;81.23;99010.41;1698917;82;25677;-86
2021/11/23 01:22:05;;;;;;;;;;;;;;;4.58;81.20;99013.63;1691206;82;20831;-86
2021/11/23 01:24:32;;;;;;;;;;;;;;;4.61;81.14;99008.32;1697824;82;26724;-85
2021/11/23 01:26:58;;;;;;;;;;;;;;;4.63;81.10;99014.31;1698960;83;24698;-86
2021/11/23 01:29:24;;;;;;;;;;;;;;;4.57;81.03;99017.97;1696645;82;20267;-86
2021/11/23 01:31:50;;;;;;;;;;;;;;;4.52;80.99;99013.41;1696493;83;24804;-85
2021/11/23 01:34:19;;;;;;;;;;;;;;;4.46;80.90;99011.03;1701040;83;20281;-86
2021/11/23 01:36:46;;;;;;;;;;;;;;;4.42;80.82;99008.61;1669149;83;25952;-86
2021/11/23 01:39:12;;;;;;;;;;;;;;;4.39;80.73;99013.44;1689271;83;25348;-86
2021/11/23 01:41:39;;;;;;;;;;;;;;;4.42;80.62;99010.72;1681161;83;20207;-85
2021/11/23 01:44:05;;;;;;;;;;;;;;;4.43;80.58;99009.83;1698254;82;20522;-86
2021/11/23 01:46:31;;;;;;;;;;;;;;;4.31;80.49;99021.92;1687756;83;22053;-85
2021/11/23 01:48:57;;;;;;;;;;;;;;;4.26;80.39;99019.09;1692408;83;26134;-86
2021/11/23 01:51:23;;;;;;;;;;;;;;;4.21;80.31;99017.52;1685372;83;24450;-85
2021/11/23 01:53:50;;;;;;;;;;;;;;;4.20;80.22;99017.56;1692298;83;20195;-85
2021/11/23 01:56:16;;;;;;;;;;;;;;;4.23;80.15;99024.39;1690980;83;25648;-85
2021/11/23 01:58:42;;;;;;;;;;;;;;;4.19;80.09;99021.92;1698417;82;22225;-86
2021/11/23 02:01:09;;;;;;;;;;;;;;;4.23;80.01;99021.36;1700265;82;26029;-85
2021/11/23 02:03:36;;;;;;;;;;;;;;;4.28;79.94;99021.19;1695088;82;23873;-86
2021/11/23 02:06:03;;;;;;;;;;;;;;;4.35;79.92;99020.08;1700071;83;20270;-86
2021/11/23 02:08:30;;;;;;;;;;;;;;;4.37;79.88;99015.67;1690499;83;25605;-86
2021/11/23 02:11:03;;;;;;;;;;;;;;;4.42;79.85;99016.39;1702511;83;22186;-86
2021/11/23 02:13:29;;;;;;;;;;;;;;;4.43;79.79;99018.05;1694323;83;26192;-86
2021/11/23 02:15:57;;;;;;;;;;;;;;;4.39;79.74;99013.44;1701593;83;24465;-86
2021/11/23 02:18:23;;;;;;;;;;;;;;;4.31;79.65;99011.55;1696764;82;20193;-86
2021/11/23 02:20:50;;;;;;;;;;;;;;;4.21;79.54;99012.78;1695313;83;24749;-86
2021/11/23 02:23:18;;;;;;;;;;;;;;;4.13;79.43;99010.48;1693170;82;22016;-85
2021/11/23 02:25:45;;;;;;;;;;;;;;;4.06;79.35;99016.76;1697845;82;25984;-85
2021/11/23 02:28:12;;;;;;;;;;;;;;;4.00;79.24;99013.08;1699938;82;24491;-85
2021/11/23 02:30:47;;;;;;;;;;;;;;;3.96;79.14;99015.83;1695698;82;20233;-85
2021/11/23 02:33:12;;;;;;;;;;;;;;;3.93;79.06;99015.95;1698130;83;24697;-85
2021/11/23 02:35:39;;;;;;;;;;;;;;;3.91;78.98;99012.55;1688476;83;22231;-85
2021/11/23 02:38:05;;;;;;;;;;;;;;;3.90;78.91;99019.92;1661483;84;26083;-85
2021/11/23 02:40:31;;;;;;;;;;;;;;;3.86;78.85;99011.42;1683271;82;24409;-85
2021/11/23 02:42:57;;;;;;;;;;;;;;;3.84;78.79;99016.23;1698116;83;20199;-85
2021/11/23 02:45:24;;;;;;;;;;;;;;;3.79;78.73;99017.24;1673649;83;24665;-85
2021/11/23 02:47:51;;;;;;;;;;;;;;;3.79;78.69;99014.66;1686587;83;21990;-86
2021/11/23 02:50:18;;;;;;;;;;;;;;;3.84;78.65;99007.17;1692986;82;26080;-85
2021/11/23 02:52:47;;;;;;;;;;;;;;;3.89;78.61;99014.34;1697883;82;24664;-85
2021/11/23 02:55:15;;;;;;;;;;;;;;;3.89;78.57;99006.56;1695011;82;20288;-85
2021/11/23 02:57:41;;;;;;;;;;;;;;;3.85;78.54;99011.02;1692600;83;24818;-86
2021/11/23 03:00:10;;;;;;;;;;;;;;;3.81;78.48;99015.91;1698020;83;22095;-86
2021/11/23 03:02:37;;;;;;;;;;;;;;;3.78;78.45;99015.55;1701015;83;26098;-86
2021/11/23 03:05:06;;;;;;;;;;;;;;;3.76;78.40;99027.68;1690286;83;24461;-86
2021/11/23 03:07:32;;;;;;;;;;;;;;;3.73;78.34;99026.50;1682061;83;20249;-85
2021/11/23 03:09:58;;;;;;;;;;;;;;;3.67;78.28;99030.58;1687179;82;24865;-85
2021/11/23 03:12:25;;;;;;;;;;;;;;;3.66;78.25;99027.59;1690438;82;22149;-85
2021/11/23 03:14:51;;;;;;;;;;;;;;;3.62;78.22;99029.03;1697668;82;26814;-85
2021/11/23 03:17:18;;;;;;;;;;;;;;;3.59;78.16;99033.03;1695996;82;24536;-85
2021/11/23 03:19:45;;;;;;;;;;;;;;;3.55;78.11;99040.47;1693987;83;20166;-85
2021/11/23 03:22:12;;;;;;;;;;;;;;;3.51;78.09;99036.30;1688080;83;24734;-85
2021/11/23 03:24:38;;;;;;;;;;;;;;;3.47;78.05;99042.03;1681212;83;22097;-86
2021/11/23 03:27:06;;;;;;;;;;;;;;;3.47;78.04;99044.61;1693620;83;25961;-86
2021/11/23 03:29:33;;;;;;;;;;;;;;;3.47;78.04;99038.59;1697359;82;24854;-86
2021/11/23 03:32:00;;;;;;;;;;;;;;;3.47;78.06;99048.49;1687348;83;20235;-86
2021/11/23 03:34:27;;;;;;;;;;;;;;;3.47;78.11;99044.61;1695766;83;24752;-86
2021/11/23 03:36:53;;;;;;;;;;;;;;;3.49;78.13;99049.75;1696581;82;21969;-86
2021/11/23 03:39:19;;;;;;;;;;;;;;;3.47;78.15;99056.26;1695591;83;26004;-86
2021/11/23 03:41:45;;;;;;;;;;;;;;;3.45;78.15;99059.77;1694318;82;20866;-86
2021/11/23 03:44:11;;;;;;;;;;;;;;;3.46;78.16;99055.00;1699998;82;20233;-86
2021/11/23 03:46:38;;;;;;;;;;;;;;;3.46;78.19;99059.73;1693134;83;24832;-86
2021/11/23 03:49:04;;;;;;;;;;;;;;;3.49;78.18;99058.33;1695833;82;22001;-86
2021/11/23 03:51:30;;;;;;;;;;;;;;;3.48;78.21;99055.37;1698317;82;26006;-85
2021/11/23 03:53:56;;;;;;;;;;;;;;;3.48;78.23;99055.81;1693552;82;24516;-86
2021/11/23 03:56:23;;;;;;;;;;;;;;;3.48;78.23;99052.78;1692306;82;20213;-85
2021/11/23 03:58:49;;;;;;;;;;;;;;;3.49;78.24;99057.52;1680688;83;24837;-85
2021/11/23 04:01:15;;;;;;;;;;;;;;;3.53;78.25;99056.06;1700436;82;20363;-85
2021/11/23 04:03:41;;;;;;;;;;;;;;;3.52;78.28;99053.08;1694795;82;26953;-85
2021/11/23 04:06:07;;;;;;;;;;;;;;;3.46;78.28;99049.38;1687004;82;24321;-85
2021/11/23 04:08:33;;;;;;;;;;;;;;;3.46;78.27;99052.41;1688877;82;20215;-85
2021/11/23 04:10:59;;;;;;;;;;;;;;;3.46;78.25;99048.09;1695799;82;24777;-85
2021/11/23 04:13:27;;;;;;;;;;;;;;;3.42;78.24;99045.65;1674447;84;20484;-86
2021/11/23 04:15:53;;;;;;;;;;;;;;;3.39;78.18;99050.46;1703593;82;26275;-86
2021/11/23 04:18:20;;;;;;;;;;;;;;;3.36;78.14;99055.74;1691942;83;24452;-86
2021/11/23 04:20:46;;;;;;;;;;;;;;;3.34;78.11;99056.23;1693960;82;20223;-85
2021/11/23 04:23:12;;;;;;;;;;;;;;;3.31;78.05;99053.75;1694918;82;24835;-85
2021/11/23 04:25:38;;;;;;;;;;;;;;;3.31;78.02;99055.89;1696308;82;22126;-85
2021/11/23 04:28:04;;;;;;;;;;;;;;;3.31;78.01;99066.68;1700668;82;26162;-86
2021/11/23 04:30:31;;;;;;;;;;;;;;;3.31;77.99;99067.97;1695883;82;20886;-86
2021/11/23 04:32:57;;;;;;;;;;;;;;;3.23;77.94;99070.78;1689729;83;20175;-86
2021/11/23 04:35:23;;;;;;;;;;;;;;;3.15;77.90;99071.47;1698355;83;24995;-86
2021/11/23 04:37:50;;;;;;;;;;;;;;;3.09;77.83;99069.06;1699366;83;22002;-85
2021/11/23 04:40:18;;;;;;;;;;;;;;;3.02;77.76;99066.69;1694732;82;26157;-86
2021/11/23 04:42:44;;;;;;;;;;;;;;;2.98;77.73;99071.56;1698999;82;24439;-86
2021/11/23 04:45:12;;;;;;;;;;;;;;;2.93;77.69;99072.55;1687870;82;20398;-87
2021/11/23 04:47:38;;;;;;;;;;;;;;;2.88;77.66;99071.84;1690831;83;24762;-87
2021/11/23 04:50:08;;;;;;;;;;;;;;;2.87;77.64;99080.48;1695399;82;21969;-87
2021/11/23 04:52:34;;;;;;;;;;;;;;;2.87;77.63;99080.48;1690974;82;26889;-86
2021/11/23 04:55:00;;;;;;;;;;;;;;;2.88;77.62;99073.13;1687266;83;20934;-87
2021/11/23 04:57:27;;;;;;;;;;;;;;;2.88;77.61;99067.95;1690922;82;20611;-86
2021/11/23 04:59:53;;;;;;;;;;;;;;;2.88;77.60;99075.72;1691378;83;24841;-85
2021/11/23 05:02:19;;;;;;;;;;;;;;;2.88;77.59;99069.70;1698353;83;22001;-86
2021/11/23 05:04:46;;;;;;;;;;;;;;;2.86;77.60;99071.02;1695562;82;26019;-85
2021/11/23 05:07:12;;;;;;;;;;;;;;;2.81;77.58;99074.19;1688314;83;24563;-86
2021/11/23 05:09:38;;;;;;;;;;;;;;;2.76;77.54;99075.20;1691828;83;20309;-85
2021/11/23 05:12:10;;;;;;;;;;;;;;;2.69;77.48;99073.67;1688122;83;24827;-85
2021/11/23 05:14:36;;;;;;;;;;;;;;;2.63;77.44;99075.98;1690878;82;22055;-85
2021/11/23 05:17:03;;;;;;;;;;;;;;;2.59;77.39;99068.36;1700848;82;26774;-85
2021/11/23 05:19:29;;;;;;;;;;;;;;;2.53;77.30;99076.69;1692871;82;24429;-85
2021/11/23 05:21:56;;;;;;;;;;;;;;;2.52;77.27;99080.59;1696976;83;20273;-85
2021/11/23 05:24:24;;;;;;;;;;;;;;;2.51;77.22;99075.02;1688635;83;24288;-85
2021/11/23 05:26:50;;;;;;;;;;;;;;;2.49;77.16;99080.25;1698023;83;22031;-85
2021/11/23 05:29:16;;;;;;;;;;;;;;;2.50;77.11;99081.10;1693103;82;26026;-85
2021/11/23 05:31:42;;;;;;;;;;;;;;;2.50;77.09;99084.53;1685519;83;20870;-84
2021/11/23 05:34:08;;;;;;;;;;;;;;;2.50;77.06;99083.69;1694505;82;20280;-85
2021/11/23 05:36:34;;;;;;;;;;;;;;;2.48;77.02;99084.16;1695312;84;20681;-85
2021/11/23 05:39:00;;;;;;;;;;;;;;;2.50;77.00;99089.70;1702796;82;22030;-86
2021/11/23 05:41:26;;;;;;;;;;;;;;;2.50;76.98;99090.14;1699001;82;26939;-86
2021/11/23 05:43:55;;;;;;;;;;;;;;;2.51;76.97;99088.78;1692110;83;25333;-86
2021/11/23 05:46:21;;;;;;;;;;;;;;;2.52;76.94;99087.91;1690986;82;20231;-86
2021/11/23 05:48:47;;;;;;;;;;;;;;;2.50;76.93;99090.14;1704427;82;24881;-85
2021/11/23 05:51:13;;;;;;;;;;;;;;;2.45;76.89;99087.69;1694505;82;20248;-86
2021/11/23 05:53:39;;;;;;;;;;;;;;;2.44;76.86;99095.03;1689128;82;26031;-86
2021/11/23 05:56:06;;;;;;;;;;;;;;;2.45;76.85;99095.88;1693654;83;24573;-86
2021/11/23 05:58:32;;;;;;;;;;;;;;;2.44;76.79;99095.47;1699595;82;20477;-86
2021/11/23 06:00:59;;;;;;;;;;;;;;;2.45;76.77;99094.59;1698821;82;25546;-85
2021/11/23 06:03:25;;;;;;;;;;;;;;;2.47;76.72;99106.55;1695488;82;22796;-85
2021/11/23 06:05:51;;;;;;;;;;;;;;;2.47;76.71;99104.41;1697422;82;25808;-85
2021/11/23 06:08:19;;;;;;;;;;;;;;;2.47;76.70;99106.55;1685861;83;24486;-85
2021/11/23 06:10:45;;;;;;;;;;;;;;;2.50;76.70;99110.81;1690890;82;20215;-85
2021/11/23 06:13:12;;;;;;;;;;;;;;;2.51;76.69;99108.16;1687489;82;24818;-85
2021/11/23 06:15:44;;;;;;;;;;;;;;;2.53;76.65;99111.56;1694247;83;22008;-85
2021/11/23 06:18:13;;;;;;;;;;;;;;;2.57;76.63;99110.17;1687572;82;26811;-85
2021/11/23 06:20:38;;;;;;;;;;;;;;;2.60;76.62;99112.69;1690533;83;24554;-85
2021/11/23 06:23:05;;;;;;;;;;;;;;;2.59;76.59;99113.14;1700730;82;20246;-85
2021/11/23 06:25:32;;;;;;;;;;;;;;;2.59;76.56;99113.58;1694587;82;24749;-86
2021/11/23 06:27:58;;;;;;;;;;;;;;;2.63;76.55;99116.47;1693085;82;22032;-86
2021/11/23 06:30:24;;;;;;;;;;;;;;;2.62;76.50;99118.20;1685414;83;26056;-86
2021/11/23 06:32:50;;;;;;;;;;;;;;;2.60;76.47;99120.45;1693372;82;24525;-86
2021/11/23 06:35:16;;;;;;;;;;;;;;;2.58;76.41;99118.33;1687868;82;20218;-85
2021/11/23 06:37:46;;;;;;;;;;;;;;;2.59;76.35;99121.33;1690372;84;25623;-86
2021/11/23 06:40:15;;;;;;;;;;;;;;;2.59;76.33;99114.87;1685014;83;21452;-85
2021/11/23 06:42:41;;;;;;;;;;;;;;;2.60;76.27;99130.78;1696348;82;25946;-87
2021/11/23 06:45:08;;;;;;;;;;;;;;;2.59;76.24;99129.08;1695613;82;24448;-87
2021/11/23 06:47:35;;;;;;;;;;;;;;;2.57;76.21;99136.86;1690974;83;20238;-85
2021/11/23 06:50:01;;;;;;;;;;;;;;;2.59;76.18;99140.27;1702173;83;24867;-84
2021/11/23 06:52:27;;;;;;;;;;;;;;;2.61;76.16;99142.81;1702015;82;21996;-85
2021/11/23 06:54:53;;;;;;;;;;;;;;;2.60;76.10;99143.25;1703220;82;20863;-85
2021/11/23 06:57:19;;;;;;;;;;;;;;;2.60;76.04;99141.11;1699722;82;24521;-85
2021/11/23 06:59:46;;;;;;;;;;;;;;;2.61;75.97;99148.84;1696919;83;20226;-85
2021/11/23 07:02:13;;;;;;;;;;;;;;;2.63;75.91;99152.64;1686123;82;24813;-86
2021/11/23 07:04:39;;;;;;;;;;;;;;;2.64;75.86;99151.77;1659692;83;21865;-86
2021/11/23 07:07:09;;;;;;;;;;;;;;;2.62;75.79;99157.44;1671763;83;21509;-85
2021/11/23 07:09:36;;;;;;;;;;;;;;;2.67;75.80;99166.77;1695261;83;25501;-85
2021/11/23 07:12:02;;;;;;;;;;;;;;;2.75;75.76;99157.50;1682249;83;20534;-85
2021/11/23 07:14:28;;;;;;;;;;;;;;;2.79;75.73;99156.07;1692418;83;24937;-85
2021/11/23 07:16:54;;;;;;;;;;;;;;;2.84;75.72;99165.84;1690911;83;22099;-85
2021/11/23 07:19:21;;;;;;;;;;;;;;;2.88;75.71;99162.75;1690643;82;26759;-85
2021/11/23 07:21:47;;;;;;;;;;;;;;;2.94;75.70;99158.27;1666967;84;25859;-85
2021/11/23 07:24:14;;;;;;;;;;;;;;;2.96;75.69;99158.20;1682479;83;20238;-85
2021/11/23 07:26:40;;;;;;;;;;;;;;;2.89;75.69;99146.36;1693770;82;24924;-85
2021/11/23 07:29:07;;;;;;;;;;;;;;;2.99;75.68;99168.47;1688020;82;21921;-85
2021/11/23 07:31:34;;;;;;;;;;;;;;;3.01;75.64;99164.09;1675881;82;26029;-84
2021/11/23 07:34:00;;;;;;;;;;;;;;;2.99;75.60;99151.67;1694038;83;24435;-85
2021/11/23 07:36:27;;;;;;;;;;;;;;;3.02;75.58;99161.91;1696922;82;20331;-85
2021/11/23 07:38:55;;;;;;;;;;;;;;;2.92;75.52;99154.86;1699042;82;25468;-84
2021/11/23 07:41:21;;;;;;;;;;;;;;;2.94;75.50;99148.37;1695196;83;22950;-85
2021/11/23 07:43:49;;;;;;;;;;;;;;;2.99;75.45;99144.36;1703484;82;26204;-85
2021/11/23 07:46:16;;;;;;;;;;;;;;;2.99;75.42;99140.48;1698534;82;25299;-84
2021/11/23 07:48:42;;;;;;;;;;;;;;;3.00;75.37;99136.53;1687888;84;20300;-84
2021/11/23 07:51:09;;;;;;;;;;;;;;;2.98;75.31;99129.73;1694707;82;25416;-84
2021/11/23 07:53:35;;;;;;;;;;;;;;;2.89;75.20;99134.25;1685193;83;21992;-84
2021/11/23 07:56:01;;;;;;;;;;;;;;;2.82;75.09;99140.50;1700864;82;26174;-84
2021/11/23 07:58:27;;;;;;;;;;;;;;;2.75;74.95;99141.55;1687862;82;24511;-84
2021/11/23 08:00:54;;;;;;;;;;;;;;;2.71;74.83;99137.80;1696764;82;20273;-84
2021/11/23 08:03:20;;;;;;;;;;;;;;;2.65;74.73;99137.96;1697853;82;24909;-84
2021/11/23 08:05:52;;;;;;;;;;;;;;;2.63;74.62;99150.06;1692580;83;20236;-84
2021/11/23 08:08:22;;;;;;;;;;;;;;;2.63;74.54;99148.33;1689097;82;26176;-84
2021/11/23 08:10:48;;;;;;;;;;;;;;;2.62;74.46;99148.39;1693787;82;24731;-87
2021/11/23 08:13:15;;;;;;;;;;;;;;;2.64;74.40;99151.77;1695753;82;20703;-85
2021/11/23 08:15:41;;;;;;;;;;;;;;;2.66;74.37;99157.75;1695260;82;25537;-85
2021/11/23 08:18:09;;;;;;;;;;;;;;;2.68;74.33;99158.09;1684645;83;20355;-86
2021/11/23 08:20:35;;;;;;;;;;;;;;;2.71;74.29;99158.47;1676203;83;26030;-86
2021/11/23 08:23:02;;;;;;;;;;;;;;;2.79;74.27;99163.83;1679046;84;24489;-86
2021/11/23 08:25:28;;;;;;;;;;;;;;;2.83;74.29;99161.59;1690433;83;20285;-86
2021/11/23 08:27:55;;;;;;;;;;;;;;;2.86;74.26;99159.34;1695773;83;24815;-86
2021/11/23 08:30:21;;;;;;;;;;;;;;;2.84;74.21;99156.80;1694249;82;21967;-86
2021/11/23 08:32:48;;;;;;;;;;;;;;;2.87;74.13;99156.73;1684151;82;26172;-86
2021/11/23 08:35:15;;;;;;;;;;;;;;;2.89;74.07;99158.80;1698306;83;24612;-85
2021/11/23 08:37:42;;;;;;;;;;;;;;;2.94;74.00;99151.80;1683755;83;20411;-86
2021/11/23 08:40:08;;;;;;;;;;;;;;;2.94;73.95;99157.41;1693875;83;20236;-85
2021/11/23 08:42:35;;;;;;;;;;;;;;;2.98;73.87;99155.14;1691092;83;22039;-85
2021/11/23 08:45:02;;;;;;;;;;;;;;;2.99;73.80;99158.13;1688523;83;25942;-85
2021/11/23 08:47:28;;;;;;;;;;;;;;;3.03;73.73;99159.73;1690276;83;24451;-86
2021/11/23 08:49:57;;;;;;;;;;;;;;;3.03;73.62;99158.44;1673303;84;20193;-86
2021/11/23 08:52:26;;;;;;;;;;;;;;;3.04;73.53;99154.13;1697364;82;24935;-86
2021/11/23 08:54:52;;;;;;;;;;;;;;;3.09;73.45;99150.96;1696167;83;22271;-85
2021/11/23 08:57:20;;;;;;;;;;;;;;;3.14;73.37;99154.26;1698142;82;26084;-85
2021/11/23 08:59:46;;;;;;;;;;;;;;;3.17;73.32;99158.03;1690547;83;24543;-85
2021/11/23 09:02:14;;;;;;;;;;;;;;;3.22;73.28;99160.89;1688910;82;20301;-85
2021/11/23 09:04:41;;;;;;;;;;;;;;;3.21;73.22;99157.93;1698773;82;24734;-86
2021/11/23 09:07:08;;;;;;;;;;;;;;;3.22;73.18;99150.55;1700633;83;21939;-86
2021/11/23 09:09:37;;;;;;;;;;;;;;;3.27;73.13;99156.44;1686616;83;26037;-86
2021/11/23 09:12:03;;;;;;;;;;;;;;;3.29;73.09;99154.66;1677557;84;24399;-86
2021/11/23 09:14:30;;;;;;;;;;;;;;;3.35;73.04;99151.05;1695374;83;20218;-85
2021/11/23 09:16:57;;;;;;;;;;;;;;;3.40;72.97;99154.79;1700161;82;24966;-85
2021/11/23 09:19:27;;;;;;;;;;;;;;;3.43;72.89;99150.39;1691627;83;21958;-85
2021/11/23 09:21:55;;;;;;;;;;;;;;;3.48;72.85;99155.42;1680121;83;25970;-86
2021/11/23 09:24:22;;;;;;;;;;;;;;;3.50;72.76;99157.06;1689020;84;24489;-86
2021/11/23 09:26:50;;;;;;;;;;;;;;;3.55;72.69;99156.47;1700408;82;20526;-85
2021/11/23 09:29:17;;;;;;;;;;;;;;;3.58;72.62;99157.69;1691930;82;25814;-86
2021/11/23 09:31:43;;;;;;;;;;;;;;;3.58;72.54;99152.52;1668536;84;22430;-86
2021/11/23 09:34:14;;;;;;;;;;;;;;;3.60;72.46;99152.48;1702220;82;26027;-86
2021/11/23 09:36:41;;;;;;;;;;;;;;;3.59;72.38;99152.07;1674193;84;24556;-85
2021/11/23 09:39:07;;;;;;;;;;;;;;;3.55;72.26;99147.86;1698557;83;20555;-85
2021/11/23 09:41:34;;;;;;;;;;;;;;;3.56;72.16;99151.70;1690973;83;25487;-85
2021/11/23 09:44:00;;;;;;;;;;;;;;;3.59;72.06;99143.86;1692245;83;22105;-85
2021/11/23 09:46:28;;;;;;;;;;;;;;;3.60;72.00;99146.01;1697285;83;26025;-86
2021/11/23 09:48:55;;;;;;;;;;;;;;;3.61;71.91;99143.35;1697253;82;24463;-85
2021/11/23 09:51:28;;;;;;;;;;;;;;;3.61;71.82;99138.62;1694787;83;20651;-85
2021/11/23 09:53:53;;;;;;;;;;;;;;;3.65;71.74;99139.80;1681880;82;24969;-85
2021/11/23 09:56:19;;;;;;;;;;;;;;;3.68;71.68;99142.28;1688175;83;21583;-86
2021/11/23 09:58:46;;;;;;;;;;;;;;;3.72;71.62;99139.98;1689372;82;26824;-85
2021/11/23 10:01:12;;;;;;;;;;;;;;;3.72;71.55;99136.55;1702145;83;24448;-86
2021/11/23 10:03:39;;;;;;;;;;;;;;;3.71;71.42;99132.27;1672103;83;20764;-85
2021/11/23 10:06:14;;;;;;;;;;;;;;;3.72;71.31;99123.61;1699536;83;24844;-85
2021/11/23 10:08:41;;;;;;;;;;;;;;;3.74;71.20;99121.83;1689770;83;22331;-86
2021/11/23 10:11:08;;;;;;;;;;;;;;;3.76;71.15;99121.34;1692688;83;26037;-85
2021/11/23 10:13:51;;;;;;;;;;;;;;;3.79;71.05;99125.97;1685882;83;25241;-85
2021/11/23 10:16:19;;;;;;;;;;;;;;;3.83;71.00;99134.47;1689578;83;20225;-85
2021/11/23 10:18:49;;;;;;;;;;;;;;;3.83;70.89;99129.73;1686994;83;24975;-85
2021/11/23 10:21:15;;;;;;;;;;;;;;;3.86;70.82;99124.48;1658572;84;22029;-85
2021/11/23 10:23:45;;;;;;;;;;;;;;;3.90;70.75;99123.48;1681763;84;25836;-85
2021/11/23 10:26:15;;;;;;;;;;;;;;;3.97;70.71;99125.84;1687228;83;24463;-86
2021/11/23 10:28:43;;;;;;;;;;;;;;;3.98;70.64;99119.73;1688428;83;20214;-85
2021/11/23 10:31:10;;;;;;;;;;;;;;;3.98;70.54;99113.27;1694852;82;25654;-85
2021/11/23 10:33:38;;;;;;;;;;;;;;;3.96;70.38;99110.34;1694692;83;21952;-85
2021/11/23 10:36:10;;;;;;;;;;;;;;;3.94;70.24;99106.50;1696813;83;26083;-85
2021/11/23 10:38:34;;;;;;;;;;;;;;;4.01;70.15;99095.50;1697558;82;24669;-85
2021/11/23 10:41:06;;;;;;;;;;;;;;;4.06;70.08;99084.09;1690941;83;20182;-85
2021/11/23 10:43:33;;;;;;;;;;;;;;;4.11;70.02;99091.70;1687702;83;24735;-85
2021/11/23 10:45:59;;;;;;;;;;;;;;;4.15;69.96;99093.28;1699252;83;22020;-85
2021/11/23 10:48:27;;;;;;;;;;;;;;;4.19;69.89;99102.23;1696714;83;26005;-85
2021/11/23 10:51:00;;;;;;;;;;;;;;;4.19;69.81;99094.90;1697518;83;24471;-85
2021/11/23 10:53:26;;;;;;;;;;;;;;;4.18;69.70;99094.05;1702657;82;20235;-85
2021/11/23 10:55:55;;;;;;;;;;;;;;;4.27;69.61;99093.33;1703115;83;25590;-85
2021/11/23 10:58:21;;;;;;;;;;;;;;;4.33;69.53;99091.38;1694238;82;22027;-85
2021/11/23 11:00:49;;;;;;;;;;;;;;;4.36;69.46;99100.36;1693947;82;21912;-85
2021/11/23 11:03:16;;;;;;;;;;;;;;;4.38;69.38;99099.84;1720917;81;26056;-85
2021/11/23 11:05:43;;;;;;;;;;;;;;;4.43;69.27;99110.89;1697313;83;20223;-85
2021/11/23 11:08:10;;;;;;;;;;;;;;;4.42;69.12;99109.67;1681039;84;25440;-85
2021/11/23 11:10:39;;;;;;;;;;;;;;;4.43;68.97;99110.89;1699282;83;22281;-86
2021/11/23 11:13:09;;;;;;;;;;;;;;;4.45;68.86;99103.92;1692316;82;26664;-85
2021/11/23 11:15:46;;;;;;;;;;;;;;;4.53;68.79;99107.52;1692297;83;24570;-86
2021/11/23 11:18:13;;;;;;;;;;;;;;;4.59;68.71;99109.91;1684653;84;20657;-85
2021/11/23 11:20:46;;;;;;;;;;;;;;;4.60;68.56;99107.72;1699027;82;24812;-86
2021/11/23 11:23:14;;;;;;;;;;;;;;;4.64;68.42;99106.25;1697563;82;22167;-86
2021/11/23 11:26:08;;;;;;;;;;;;;;;4.68;68.28;99100.53;1696056;83;25938;-86
2021/11/23 11:28:38;;;;;;;;;;;;;;;4.68;68.12;99092.75;1684482;83;24459;-86
2021/11/23 11:31:08;;;;;;;;;;;;;;;4.71;67.97;99087.89;1679388;83;20985;-85
2021/11/23 11:33:39;;;;;;;;;;;;;;;4.75;67.88;99085.13;1689348;83;24845;-86
2021/11/23 11:36:05;;;;;;;;;;;;;;;4.84;67.81;99085.27;1694010;83;22872;-86
2021/11/23 11:38:39;;;;;;;;;;;;;;;4.86;67.71;99087.33;1674285;83;26069;-86
2021/11/23 11:41:07;;;;;;;;;;;;;;;4.88;67.61;99085.55;1668810;84;26808;-86
2021/11/23 11:43:35;;;;;;;;;;;;;;;4.94;67.50;99092.66;1696765;83;20528;-86
2021/11/23 11:46:02;;;;;;;;;;;;;;;4.97;67.41;99096.87;1681872;82;25216;-86
2021/11/23 11:48:38;;;;;;;;;;;;;;;5.00;67.31;99089.84;1664501;85;22256;-85
2021/11/23 11:51:09;;;;;;;;;;;;;;;5.05;67.19;99094.85;1655103;85;25922;-85
2021/11/23 11:53:37;;;;;;;;;;;;;;;5.12;67.13;99087.25;1656639;85;24475;-87
2021/11/23 11:56:04;;;;;;;;;;;;;;;5.23;67.09;99086.84;1654144;85;20397;-87
2021/11/23 11:58:48;;;;;;;;;;;;;;;5.34;67.03;99084.69;1631137;86;24821;-86
2021/11/23 12:01:16;;;;;;;;;;;;;;;5.37;66.95;99069.83;1639606;85;21996;-86
2021/11/23 12:03:42;;;;;;;;;;;;;;;5.46;66.88;99064.27;1630330;86;26253;-86
2021/11/23 12:06:08;;;;;;;;;;;;;;;5.48;66.76;99058.58;1633768;86;23993;-86
2021/11/23 12:08:36;;;;;;;;;;;;;;;5.51;66.62;99054.19;1661887;84;20253;-86
2021/11/23 12:11:09;;;;;;;;;;;;;;;5.52;66.48;99053.25;1674104;85;24778;-86
2021/11/23 12:13:43;;;;;;;;;;;;;;;5.46;66.30;99046.10;1629564;85;21930;-86
2021/11/23 12:16:26;;;;;;;;;;;;;;;5.44;66.14;99057.47;1632268;87;26242;-86
2021/11/23 12:19:10;;;;;;;;;;;;;;;5.43;65.99;99061.81;1620670;87;25489;-87
2021/11/23 12:21:38;;;;;;;;;;;;;;;5.42;65.86;99068.34;1623705;85;20478;-87
2021/11/23 12:24:04;;;;;;;;;;;;;;;5.41;65.75;99063.61;1630954;85;24854;-86
2021/11/23 12:26:36;;;;;;;;;;;;;;;5.41;65.64;99062.76;1634683;86;20214;-86
2021/11/23 12:29:14;;;;;;;;;;;;;;;5.37;65.51;99055.55;1617225;85;26124;-86
2021/11/23 12:31:46;;;;;;;;;;;;;;;5.38;65.38;99064.19;1599113;88;20235;-86
2021/11/23 12:34:12;;;;;;;;;;;;;;;5.39;65.31;99052.46;1634372;87;20314;-86
2021/11/23 12:36:39;;;;;;;;;;;;;;;5.41;65.18;99038.10;1626081;86;20219;-85
2021/11/23 12:39:13;;;;;;;;;;;;;;;5.40;65.06;99033.36;1627501;85;22045;-86
2021/11/23 12:41:39;;;;;;;;;;;;;;;5.38;64.92;99030.45;1630501;85;26005;-85
2021/11/23 12:44:19;;;;;;;;;;;;;;;5.35;64.81;99028.80;1642137;85;24509;-85
2021/11/23 12:46:53;;;;;;;;;;;;;;;5.38;64.73;99030.00;1574076;89;20374;-85
2021/11/23 12:49:20;;;;;;;;;;;;;;;5.44;64.68;99027.16;1624216;86;24796;-85
2021/11/23 12:51:54;;;;;;;;;;;;;;;5.49;64.65;99033.47;1665446;85;21856;-85
2021/11/23 12:54:22;;;;;;;;;;;;;;;5.47;64.61;99033.52;1642566;85;26052;-86
2021/11/23 12:56:58;;;;;;;;;;;;;;;5.47;64.52;99033.52;1646468;84;24459;-86
2021/11/23 12:59:28;;;;;;;;;;;;;;;5.45;64.44;99036.62;1636064;86;20323;-86